Time;durP1;ratioP1;P1;durP2;ratioP2;P2;SDS_P1;SDS_P2;PMS_P1;PMS_P2;Temp;Humidity;BMP_temperature;BMP_pressure;BME280_temperature;BME280_humidity;BME280_pressure;Samples;Min_cycle;Max_cycle;Signal;HPM_P1;HPM_P2
2022/12/05 00:02:22;;;;;;;8.70;2.00;;;;;;;;;;5107920;28;20055;-74
2022/12/05 00:04:52;;;;;;;3.65;2.30;;;;;;;;;;5105589;28;20049;-73
2022/12/05 00:07:22;;;;;;;6.25;2.08;;;;;;;;;;5078764;28;20415;-72
2022/12/05 00:09:52;;;;;;;7.25;2.38;;;;;;;;;;5076758;28;20048;-77
2022/12/05 00:12:22;;;;;;;3.47;2.20;;;;;;;;;;5076161;28;20036;-74
2022/12/05 00:14:52;;;;;;;6.07;2.42;;;;;;;;;;5076863;28;20036;-74
2022/12/05 00:17:21;;;;;;;5.03;2.13;;;;;;;;;;5076937;28;20040;-74
2022/12/05 00:19:51;;;;;;;4.15;2.50;;;;;;;;;;5073043;28;20518;-74
2022/12/05 00:22:25;;;;;;;3.55;2.08;;;;;;;;;;5066285;28;20056;-73
2022/12/05 00:24:55;;;;;;;10.02;3.60;;;;;;;;;;5065573;28;20040;-74
2022/12/05 00:27:25;;;;;;;7.28;1.98;;;;;;;;;;5067062;28;20415;-75
2022/12/05 00:29:55;;;;;;;5.28;2.22;;;;;;;;;;5066572;28;20045;-73
2022/12/05 00:32:28;;;;;;;5.35;2.00;;;;;;;;;;5067112;28;20071;-73
2022/12/05 00:34:58;;;;;;;4.03;2.05;;;;;;;;;;5066346;28;20061;-73
2022/12/05 00:37:28;;;;;;;2.55;1.92;;;;;;;;;;5067109;28;20047;-77
2022/12/05 00:39:58;;;;;;;9.68;2.20;;;;;;;;;;5066435;28;20048;-73
2022/12/05 00:42:28;;;;;;;8.80;2.30;;;;;;;;;;5066888;28;20052;-73
2022/12/05 00:44:58;;;;;;;7.13;2.35;;;;;;;;;;5067301;28;20056;-74
2022/12/05 00:47:28;;;;;;;2.35;1.90;;;;;;;;;;5066958;28;20487;-73
2022/12/05 00:49:57;;;;;;;4.10;2.05;;;;;;;;;;5067250;28;20060;-73
2022/12/05 00:52:28;;;;;;;5.25;2.15;;;;;;;;;;5066437;28;20040;-74
2022/12/05 00:54:58;;;;;;;7.10;2.40;;;;;;;;;;5065614;28;20048;-74
2022/12/05 00:57:28;;;;;;;6.88;2.22;;;;;;;;;;5067791;28;20044;-75
2022/12/05 00:59:57;;;;;;;5.05;2.05;;;;;;;;;;5067223;28;20052;-75
2022/12/05 01:02:27;;;;;;;3.40;2.22;;;;;;;;;;5065220;28;20399;-74
2022/12/05 01:04:57;;;;;;;3.53;2.13;;;;;;;;;;5067275;28;20053;-74
2022/12/05 01:07:27;;;;;;;6.10;2.17;;;;;;;;;;5066966;28;20506;-74
2022/12/05 01:09:58;;;;;;;3.40;2.00;;;;;;;;;;5066435;28;20052;-74
2022/12/05 01:12:28;;;;;;;5.95;2.33;;;;;;;;;;5066653;28;20051;-74
2022/12/05 01:14:58;;;;;;;5.28;1.92;;;;;;;;;;5065741;28;20052;-75
2022/12/05 01:17:27;;;;;;;6.45;2.30;;;;;;;;;;5066123;28;20063;-74
2022/12/05 01:19:57;;;;;;;2.75;1.70;;;;;;;;;;5066713;28;20482;-74
2022/12/05 01:22:28;;;;;;;3.50;1.88;;;;;;;;;;5066013;28;20514;-74
2022/12/05 01:24:58;;;;;;;5.05;1.80;;;;;;;;;;5066687;28;20499;-74
2022/12/05 01:27:28;;;;;;;2.45;1.80;;;;;;;;;;5065178;28;20391;-74
2022/12/05 01:29:58;;;;;;;3.25;2.00;;;;;;;;;;5067282;28;20059;-76
2022/12/05 01:32:28;;;;;;;3.33;1.77;;;;;;;;;;5066641;28;20388;-74
2022/12/05 01:34:58;;;;;;;4.30;1.80;;;;;;;;;;5065989;28;20044;-74
2022/12/05 01:37:28;;;;;;;4.20;2.17;;;;;;;;;;5066359;28;20067;-74
2022/12/05 01:39:59;;;;;;;5.38;1.80;;;;;;;;;;5066165;28;20624;-74
2022/12/05 01:42:30;;;;;;;4.93;2.10;;;;;;;;;;5066591;28;20048;-74
2022/12/05 01:45:06;;;;;;;6.43;2.22;;;;;;;;;;5066354;28;20063;-74
2022/12/05 01:47:37;;;;;;;7.13;2.33;;;;;;;;;;5066094;28;20053;-74
2022/12/05 01:50:08;;;;;;;2.35;1.60;;;;;;;;;;5066107;28;20446;-74
2022/12/05 01:52:39;;;;;;;3.75;2.08;;;;;;;;;;5066326;28;20060;-74
2022/12/05 01:55:13;;;;;;;3.58;1.90;;;;;;;;;;5066729;28;20041;-74
2022/12/05 01:57:47;;;;;;;4.97;2.05;;;;;;;;;;5066235;28;20064;-74
2022/12/05 02:00:19;;;;;;;5.88;1.77;;;;;;;;;;5065851;28;20074;-74
2022/12/05 02:02:56;;;;;;;4.15;2.13;;;;;;;;;;5066516;28;20415;-74
2022/12/05 02:05:32;;;;;;;5.78;2.22;;;;;;;;;;5066233;28;20063;-74
2022/12/05 02:08:06;;;;;;;4.78;1.85;;;;;;;;;;5067045;28;20052;-74
2022/12/05 02:10:41;;;;;;;8.20;2.22;;;;;;;;;;5065996;28;20155;-74
2022/12/05 02:13:48;;;;;;;5.00;2.28;;;;;;;;;;5064596;28;20044;-75
2022/12/05 02:16:36;;;;;;;6.38;2.40;;;;;;;;;;5066329;28;20640;-74
2022/12/05 02:19:12;;;;;;;5.10;2.40;;;;;;;;;;5066104;28;20044;-74
2022/12/05 02:22:00;;;;;;;7.97;3.03;;;;;;;;;;5066473;28;20364;-74
2022/12/05 02:25:00;;;;;;;5.32;2.17;;;;;;;;;;5066240;28;20419;-74
2022/12/05 02:27:56;;;;;;;5.82;2.45;;;;;;;;;;5066426;28;20071;-74
2022/12/05 02:30:41;;;;;;;7.88;2.50;;;;;;;;;;5066169;28;20052;-74
2022/12/05 02:33:32;;;;;;;3.42;2.08;;;;;;;;;;5065866;28;20040;-74
2022/12/05 02:36:17;;;;;;;5.20;2.55;;;;;;;;;;5066069;28;20049;-74
2022/12/05 02:39:02;;;;;;;6.13;2.58;;;;;;;;;;5066512;28;20044;-74
2022/12/05 02:41:55;;;;;;;5.90;2.70;;;;;;;;;;5065912;28;20052;-74
2022/12/05 02:45:00;;;;;;;4.47;2.30;;;;;;;;;;5065710;28;20163;-74
2022/12/05 02:47:35;;;;;;;4.38;2.50;;;;;;;;;;5054744;28;20056;-74
2022/12/05 02:50:08;;;;;;;7.15;2.53;;;;;;;;;;5065804;28;20048;-74
2022/12/05 02:52:40;;;;;;;4.45;2.53;;;;;;;;;;5065759;28;20048;-73
2022/12/05 02:55:12;;;;;;;6.38;2.40;;;;;;;;;;5065756;28;20049;-74
2022/12/05 02:57:48;;;;;;;6.15;2.70;;;;;;;;;;5065668;28;20056;-74
2022/12/05 03:00:18;;;;;;;5.18;2.70;;;;;;;;;;5065593;28;20060;-74
2022/12/05 03:02:53;;;;;;;7.03;2.97;;;;;;;;;;5065451;28;20036;-74
2022/12/05 03:05:38;;;;;;;7.10;2.85;;;;;;;;;;5065763;28;20044;-74
2022/12/05 03:08:14;;;;;;;5.97;2.58;;;;;;;;;;5065853;28;20047;-73
2022/12/05 03:10:46;;;;;;;4.43;2.40;;;;;;;;;;5065453;28;20036;-74
2022/12/05 03:13:24;;;;;;;6.38;2.60;;;;;;;;;;5065913;28;20047;-73
2022/12/05 03:16:01;;;;;;;3.80;2.63;;;;;;;;;;5064131;28;20048;-74
2022/12/05 03:18:55;;;;;;;4.35;2.90;;;;;;;;;;5065443;28;20067;-74
2022/12/05 03:21:25;;;;;;;5.88;2.80;;;;;;;;;;5065769;28;20440;-73
2022/12/05 03:24:11;;;;;;;8.40;2.53;;;;;;;;;;5065613;28;20048;-74
2022/12/05 03:27:08;;;;;;;6.05;2.67;;;;;;;;;;5068807;28;20040;-74
2022/12/05 03:30:03;;;;;;;6.68;2.38;;;;;;;;;;5068776;28;20052;-74
2022/12/05 03:32:41;;;;;;;15.63;2.70;;;;;;;;;;5068862;28;20048;-74
2022/12/05 03:35:24;;;;;;;4.03;2.85;;;;;;;;;;5067760;28;20048;-74
2022/12/05 03:37:58;;;;;;;12.75;2.60;;;;;;;;;;5068721;28;20521;-73
2022/12/05 03:40:58;;;;;;;12.23;2.97;;;;;;;;;;5068755;28;20048;-74
2022/12/05 03:43:39;;;;;;;6.38;2.72;;;;;;;;;;5066956;28;20069;-74
2022/12/05 03:46:15;;;;;;;;;;;;;;;;;;5069335;28;20407;-73
2022/12/05 03:49:09;;;;;;;3.83;2.40;;;;;;;;;;5068438;28;19924;-74
2022/12/05 03:52:03;;;;;;;4.35;2.55;;;;;;;;;;5068735;28;20411;-73
2022/12/05 03:55:00;;;;;;;4.25;2.45;;;;;;;;;;5068337;28;20052;-74
2022/12/05 03:57:45;;;;;;;4.88;2.50;;;;;;;;;;5061868;28;20060;-74
2022/12/05 04:00:18;;;;;;;5.28;3.05;;;;;;;;;;5068032;28;20131;-73
2022/12/05 04:02:52;;;;;;;5.55;3.38;;;;;;;;;;5068823;28;20063;-72
2022/12/05 04:05:59;;;;;;;6.13;3.15;;;;;;;;;;5068452;28;20392;-73
2022/12/05 04:08:41;;;;;;;7.28;3.55;;;;;;;;;;5025736;28;20060;-74
2022/12/05 04:11:18;;;;;;;5.88;3.03;;;;;;;;;;5067675;28;20403;-73
2022/12/05 04:13:53;;;;;;;10.20;3.58;;;;;;;;;;5067035;28;20529;-73
2022/12/05 04:19:24;;;;;;;5.82;3.17;;;;;;;;;;5067992;28;20044;-73
2022/12/05 04:21:56;;;;;;;8.00;3.75;;;;;;;;;;5067586;28;20044;-73
2022/12/05 04:27:35;;;;;;;6.57;3.30;;;;;;;;;;5025480;28;20049;-74
2022/12/05 04:30:09;;;;;;;6.78;3.70;;;;;;;;;;5060972;28;20056;-73
2022/12/05 04:32:56;;;;;;;6.70;3.70;;;;;;;;;;5065959;28;20044;-74
2022/12/05 04:35:42;;;;;;;8.52;3.65;;;;;;;;;;5067831;28;20044;-74
2022/12/05 04:38:20;;;;;;;11.98;3.60;;;;;;;;;;5067730;28;20045;-73
2022/12/05 04:40:57;;;;;;;9.57;3.53;;;;;;;;;;5065603;28;20063;-73
2022/12/05 04:43:29;;;;;;;6.38;2.88;;;;;;;;;;5067356;28;20829;-74
2022/12/05 04:46:03;;;;;;;5.70;3.65;;;;;;;;;;5067004;28;20047;-74
2022/12/05 04:48:37;;;;;;;7.28;3.65;;;;;;;;;;5067293;28;20040;-73
2022/12/05 04:51:12;;;;;;;9.95;3.60;;;;;;;;;;5067603;28;20048;-74
2022/12/05 04:53:44;;;;;;;9.20;3.33;;;;;;;;;;5067298;28;20082;-73
2022/12/05 04:56:18;;;;;;;8.95;3.50;;;;;;;;;;5067799;28;20040;-73
2022/12/05 04:58:48;;;;;;;6.53;3.80;;;;;;;;;;5067736;28;20407;-74
2022/12/05 05:01:40;;;;;;;7.22;3.28;;;;;;;;;;5066755;28;20814;-74
2022/12/05 05:04:16;;;;;;;12.63;3.65;;;;;;;;;;5067211;28;20059;-73
2022/12/05 05:06:47;;;;;;;8.77;3.33;;;;;;;;;;5066899;28;20053;-74
2022/12/05 05:09:16;;;;;;;11.73;3.08;;;;;;;;;;5066812;28;20044;-74
2022/12/05 05:11:46;;;;;;;6.25;3.38;;;;;;;;;;5066815;28;20044;-73
2022/12/05 05:14:16;;;;;;;8.20;2.83;;;;;;;;;;5065465;28;20434;-73
2022/12/05 05:16:47;;;;;;;6.60;2.85;;;;;;;;;;5066975;28;20517;-73
2022/12/05 05:19:17;;;;;;;5.68;3.53;;;;;;;;;;5066974;28;20040;-74
2022/12/05 05:21:47;;;;;;;6.93;3.15;;;;;;;;;;5067119;28;20411;-73
2022/12/05 05:24:17;;;;;;;6.10;3.28;;;;;;;;;;5067277;28;20048;-73
2022/12/05 05:26:47;;;;;;;6.95;3.03;;;;;;;;;;5066540;28;20052;-74
2022/12/05 05:29:24;;;;;;;6.57;2.97;;;;;;;;;;5066681;28;20055;-74
2022/12/05 05:31:54;;;;;;;10.02;2.85;;;;;;;;;;5066756;28;20060;-74
2022/12/05 05:34:27;;;;;;;6.85;3.08;;;;;;;;;;5066747;28;20052;-74
2022/12/05 05:36:57;;;;;;;8.18;2.85;;;;;;;;;;5066418;28;20529;-74
2022/12/05 05:39:28;;;;;;;4.65;2.80;;;;;;;;;;5066613;28;20033;-73
2022/12/05 05:41:58;;;;;;;8.02;2.97;;;;;;;;;;5066888;28;20057;-73
2022/12/05 05:44:28;;;;;;;5.85;3.10;;;;;;;;;;5067205;28;20060;-73
2022/12/05 05:46:58;;;;;;;7.25;3.13;;;;;;;;;;5066365;28;20056;-74
2022/12/05 05:49:28;;;;;;;6.53;3.88;;;;;;;;;;5066865;28;20620;-73
2022/12/05 05:51:57;;;;;;;4.55;2.53;;;;;;;;;;5066183;28;20402;-74
2022/12/05 05:54:27;;;;;;;8.30;3.22;;;;;;;;;;5066648;28;20419;-74
2022/12/05 05:56:57;;;;;;;4.75;2.97;;;;;;;;;;5066341;28;20037;-74
2022/12/05 05:59:28;;;;;;;6.28;2.92;;;;;;;;;;5065947;28;20053;-74
2022/12/05 06:01:58;;;;;;;5.28;2.78;;;;;;;;;;5065784;28;20052;-74
2022/12/05 06:04:28;;;;;;;10.18;2.92;;;;;;;;;;5066383;28;20942;-73
2022/12/05 06:06:58;;;;;;;9.70;3.20;;;;;;;;;;5065761;28;20055;-74
2022/12/05 06:09:28;;;;;;;6.57;3.25;;;;;;;;;;5064974;28;20052;-73
2022/12/05 06:11:59;;;;;;;4.80;2.78;;;;;;;;;;5066799;28;20489;-74
2022/12/05 06:14:30;;;;;;;5.53;2.67;;;;;;;;;;5066504;28;20493;-73
2022/12/05 06:16:59;;;;;;;4.45;3.00;;;;;;;;;;5066038;28;20040;-74
2022/12/05 06:19:29;;;;;;;9.18;3.05;;;;;;;;;;5066688;28;20063;-74
2022/12/05 06:21:59;;;;;;;11.23;3.35;;;;;;;;;;5064175;28;20052;-74
2022/12/05 06:24:29;;;;;;;7.32;3.17;;;;;;;;;;5065535;28;20517;-74
2022/12/05 06:26:58;;;;;;;5.13;3.20;;;;;;;;;;5065901;28;20521;-73
2022/12/05 06:29:28;;;;;;;6.38;3.47;;;;;;;;;;5066472;28;20497;-73
2022/12/05 06:32:01;;;;;;;8.23;3.28;;;;;;;;;;5066091;28;20045;-73
2022/12/05 06:34:31;;;;;;;9.52;3.53;;;;;;;;;;5066084;28;20044;-73
2022/12/05 06:37:01;;;;;;;6.93;3.13;;;;;;;;;;5066037;28;20426;-74
2022/12/05 06:39:31;;;;;;;5.68;3.72;;;;;;;;;;5063486;28;20404;-74
2022/12/05 06:42:01;;;;;;;5.72;3.72;;;;;;;;;;5066031;28;20040;-73
2022/12/05 06:44:31;;;;;;;12.98;4.30;;;;;;;;;;5065695;28;20044;-73
2022/12/05 06:47:01;;;;;;;5.57;3.70;;;;;;;;;;5065909;28;20522;-74
2022/12/05 06:49:32;;;;;;;8.60;4.05;;;;;;;;;;5065654;28;20049;-73
2022/12/05 06:52:06;;;;;;;6.43;3.65;;;;;;;;;;5065298;28;20037;-73
2022/12/05 06:54:35;;;;;;;6.28;3.67;;;;;;;;;;5065936;28;20056;-74
2022/12/05 06:57:05;;;;;;;6.63;3.67;;;;;;;;;;5066299;28;20036;-74
2022/12/05 06:59:35;;;;;;;8.35;3.58;;;;;;;;;;5067067;28;20067;-74
2022/12/05 07:02:08;;;;;;;6.43;4.03;;;;;;;;;;5069731;28;20047;-74
2022/12/05 07:04:39;;;;;;;6.20;3.83;;;;;;;;;;5069781;28;20381;-74
2022/12/05 07:07:08;;;;;;;5.80;3.92;;;;;;;;;;5069303;28;20045;-74
2022/12/05 07:09:53;;;;;;;6.35;3.90;;;;;;;;;;5069106;28;20063;-74
2022/12/05 07:12:23;;;;;;;9.30;4.15;;;;;;;;;;5069217;28;20059;-73
2022/12/05 07:14:53;;;;;;;8.88;4.00;;;;;;;;;;5067819;28;20052;-74
2022/12/05 07:17:23;;;;;;;8.27;3.47;;;;;;;;;;5068839;28;20049;-74
2022/12/05 07:19:53;;;;;;;8.10;4.05;;;;;;;;;;5069289;28;20055;-74
2022/12/05 07:22:23;;;;;;;10.80;4.70;;;;;;;;;;5069455;28;20045;-74
2022/12/05 07:24:53;;;;;;;7.10;4.00;;;;;;;;;;5069170;28;20044;-74
2022/12/05 07:27:23;;;;;;;7.68;3.97;;;;;;;;;;5069784;28;20059;-74
2022/12/05 07:29:56;;;;;;;6.53;4.00;;;;;;;;;;5069126;28;20037;-74
2022/12/05 07:32:26;;;;;;;9.73;4.22;;;;;;;;;;5069064;28;20045;-74
2022/12/05 07:34:56;;;;;;;9.35;3.95;;;;;;;;;;5068807;28;20055;-75
2022/12/05 07:37:26;;;;;;;7.25;3.83;;;;;;;;;;5068643;28;20048;-75
2022/12/05 07:39:55;;;;;;;7.10;3.78;;;;;;;;;;5068522;28;20056;-74
2022/12/05 07:42:26;;;;;;;8.93;4.18;;;;;;;;;;5069061;28;20052;-74
2022/12/05 07:44:55;;;;;;;5.75;3.38;;;;;;;;;;5069617;28;20049;-74
2022/12/05 07:47:28;;;;;;;5.97;4.03;;;;;;;;;;5068487;28;20636;-74
2022/12/05 07:49:58;;;;;;;6.40;3.22;;;;;;;;;;5068677;28;20553;-75
2022/12/05 07:52:29;;;;;;;5.03;3.30;;;;;;;;;;5069181;28;20491;-74
2022/12/05 07:54:59;;;;;;;7.20;3.85;;;;;;;;;;5068577;28;20048;-74
2022/12/05 07:57:30;;;;;;;6.20;3.45;;;;;;;;;;5067295;28;20519;-74
2022/12/05 08:00:00;;;;;;;7.55;3.92;;;;;;;;;;5068443;28;20502;-74
2022/12/05 08:02:39;;;;;;;7.97;3.53;;;;;;;;;;5069927;28;20423;-75
2022/12/05 08:05:10;;;;;;;6.63;3.55;;;;;;;;;;5068060;28;20053;-75
2022/12/05 08:07:40;;;;;;;6.63;3.47;;;;;;;;;;5068511;28;20126;-75
2022/12/05 08:10:11;;;;;;;8.13;3.60;;;;;;;;;;5067860;28;20044;-75
2022/12/05 08:12:41;;;;;;;7.97;3.45;;;;;;;;;;5067011;28;20056;-75
2022/12/05 08:15:11;;;;;;;9.77;3.50;;;;;;;;;;5068549;28;20418;-75
2022/12/05 08:17:41;;;;;;;4.40;3.40;;;;;;;;;;5068286;28;20048;-74
2022/12/05 08:20:11;;;;;;;6.47;3.17;;;;;;;;;;5068754;28;20049;-74
2022/12/05 08:22:41;;;;;;;9.10;3.30;;;;;;;;;;5067959;28;20055;-74
2022/12/05 08:25:11;;;;;;;10.05;3.47;;;;;;;;;;5067745;28;20044;-75
2022/12/05 08:27:41;;;;;;;8.35;3.53;;;;;;;;;;5067712;28;20048;-74
2022/12/05 08:30:11;;;;;;;4.50;3.17;;;;;;;;;;5067824;28;20499;-75
2022/12/05 08:32:40;;;;;;;7.68;3.28;;;;;;;;;;5068140;28;20712;-74
2022/12/05 08:35:10;;;;;;;6.47;3.03;;;;;;;;;;5068288;28;20047;-74
2022/12/05 08:37:40;;;;;;;7.80;3.35;;;;;;;;;;5067469;28;20055;-75
2022/12/05 08:40:10;;;;;;;8.85;3.10;;;;;;;;;;5067812;28;20045;-75
2022/12/05 08:42:40;;;;;;;4.47;2.22;;;;;;;;;;5068096;28;20427;-74
2022/12/05 08:45:10;;;;;;;3.33;1.90;;;;;;;;;;5067036;28;20045;-74
2022/12/05 08:47:40;;;;;;;10.65;2.22;;;;;;;;;;5067861;28;20507;-74
2022/12/05 08:50:10;;;;;;;4.22;1.98;;;;;;;;;;5067304;28;20052;-74
2022/12/05 08:52:40;;;;;;;4.47;2.15;;;;;;;;;;5065517;28;20534;-74
2022/12/05 08:55:10;;;;;;;3.85;1.77;;;;;;;;;;5067713;28;20513;-74
2022/12/05 08:57:40;;;;;;;5.25;2.05;;;;;;;;;;5067416;28;20517;-74
2022/12/05 09:00:10;;;;;;;6.57;3.00;;;;;;;;;;5065087;28;20526;-74
2022/12/05 09:02:40;;;;;;;3.35;2.38;;;;;;;;;;5067074;28;20044;-75
2022/12/05 09:05:10;;;;;;;4.97;1.98;;;;;;;;;;5066829;28;20494;-74
2022/12/05 09:07:55;;;;;;;6.07;2.20;;;;;;;;;;5065635;28;20048;-74
2022/12/05 09:10:26;;;;;;;4.18;2.50;;;;;;;;;;5067316;28;20488;-74
2022/12/05 09:12:57;;;;;;;3.75;1.75;;;;;;;;;;5067161;28;20045;-75
2022/12/05 09:15:26;;;;;;;4.03;2.13;;;;;;;;;;5066126;28;20045;-76
2022/12/05 09:17:56;;;;;;;3.05;1.70;;;;;;;;;;5066801;28;20051;-74
2022/12/05 09:20:26;;;;;;;5.20;2.00;;;;;;;;;;5067374;28;20044;-74
2022/12/05 09:22:56;;;;;;;3.55;1.73;;;;;;;;;;5066197;28;20423;-74
2022/12/05 09:25:26;;;;;;;5.72;2.00;;;;;;;;;;5066933;28;20055;-75
2022/12/05 09:27:56;;;;;;;5.07;2.38;;;;;;;;;;5066719;28;20048;-74
2022/12/05 09:30:28;;;;;;;3.25;2.00;;;;;;;;;;5065024;28;20052;-76
2022/12/05 09:32:58;;;;;;;6.55;1.85;;;;;;;;;;5065133;28;20049;-73
2022/12/05 09:35:30;;;;;;;4.97;2.10;;;;;;;;;;5066865;28;20051;-73
2022/12/05 09:38:00;;;;;;;3.63;1.83;;;;;;;;;;5067066;28;20052;-74
2022/12/05 09:40:30;;;;;;;4.93;1.92;;;;;;;;;;5065694;28;20041;-74
2022/12/05 09:43:07;;;;;;;5.13;2.13;;;;;;;;;;5066355;28;20048;-74
2022/12/05 09:45:59;;;;;;;4.03;2.03;;;;;;;;;;5066330;28;20040;-73
2022/12/05 09:48:30;;;;;;;2.97;1.63;;;;;;;;;;5066349;28;20055;-74
2022/12/05 09:51:02;;;;;;;5.53;1.98;;;;;;;;;;5066495;28;20380;-74
2022/12/05 09:53:37;;;;;;;4.75;2.20;;;;;;;;;;5066061;28;20036;-74
2022/12/05 09:56:20;;;;;;;3.80;1.50;;;;;;;;;;5065992;28;20707;-74
2022/12/05 09:58:52;;;;;;;4.47;1.90;;;;;;;;;;5065853;28;20044;-74
2022/12/05 10:01:41;;;;;;;4.50;1.90;;;;;;;;;;5064932;28;20502;-74
2022/12/05 10:04:30;;;;;;;4.40;1.85;;;;;;;;;;5065751;28;20052;-73
2022/12/05 10:07:15;;;;;;;5.05;2.13;;;;;;;;;;5066480;28;20142;-73
2022/12/05 10:10:11;;;;;;;6.65;1.77;;;;;;;;;;5066121;28;20044;-74
2022/12/05 10:13:06;;;;;;;2.72;1.75;;;;;;;;;;5066370;28;20048;-74
2022/12/05 10:15:48;;;;;;;2.65;1.52;;;;;;;;;;5066745;28;20495;-74
2022/12/05 10:18:51;;;;;;;4.88;1.83;;;;;;;;;;5066400;28;20049;-74
2022/12/05 10:21:36;;;;;;;6.57;1.80;;;;;;;;;;5065923;28;20091;-73
2022/12/05 10:24:37;;;;;;;5.25;1.95;;;;;;;;;;5066081;28;20044;-74
2022/12/05 10:27:13;;;;;;;3.65;1.63;;;;;;;;;;5064037;28;20060;-74
2022/12/05 10:29:53;;;;;;;3.38;1.60;;;;;;;;;;5066017;28;20059;-74
2022/12/05 10:32:56;;;;;;;4.32;1.73;;;;;;;;;;5066198;28;20037;-73
2022/12/05 10:35:27;;;;;;;5.22;1.55;;;;;;;;;;5070522;28;20056;-74
2022/12/05 10:49:36;;;;;;;3.05;1.48;;;;;;;;;;5124569;27;20473;-82
2022/12/05 10:52:06;;;;;;;3.25;1.33;;;;;;;;;;5124268;28;20047;-73
2022/12/05 10:54:46;;;;;;;3.55;1.30;;;;;;;;;;5124525;28;20058;-72
2022/12/05 10:57:23;;;;;;;4.53;1.70;;;;;;;;;;5124718;28;20051;-73
2022/12/05 10:59:55;;;;;;;4.13;1.80;;;;;;;;;;5123909;28;20047;-76
2022/12/05 11:02:31;;;;;;;3.25;1.50;;;;;;;;;;5123747;28;20039;-78
2022/12/05 11:05:01;;;;;;;3.65;1.33;;;;;;;;;;5124619;28;20058;-77
2022/12/05 11:07:47;;;;;;;5.78;1.73;;;;;;;;;;5124365;28;20039;-75
2022/12/05 11:10:36;;;;;;;3.50;1.42;;;;;;;;;;5123933;28;20055;-73
2022/12/05 11:13:23;;;;;;;3.90;2.13;;;;;;;;;;5123891;28;20053;-73
2022/12/05 11:15:53;;;;;;;3.53;1.50;;;;;;;;;;5123853;28;20506;-73
2022/12/05 11:18:33;;;;;;;3.28;1.40;;;;;;;;;;5123290;28;20543;-74
2022/12/05 11:21:13;;;;;;;4.40;1.30;;;;;;;;;;5123524;28;20051;-74
2022/12/05 11:23:43;;;;;;;5.25;1.63;;;;;;;;;;5123395;28;20066;-74
2022/12/05 11:26:36;;;;;;;3.13;1.75;;;;;;;;;;5123080;28;20047;-75
2022/12/05 11:29:29;;;;;;;3.40;1.40;;;;;;;;;;5119488;28;20063;-76
2022/12/05 11:32:01;;;;;;;4.85;1.40;;;;;;;;;;5123816;28;20505;-76
2022/12/05 11:35:04;;;;;;;3.70;1.20;;;;;;;;;;5123479;28;20066;-73
2022/12/05 11:37:49;;;;;;;2.35;1.30;;;;;;;;;;5123215;28;20046;-75
2022/12/05 11:40:32;;;;;;;3.78;1.38;;;;;;;;;;5123165;28;20571;-76
2022/12/05 11:43:35;;;;;;;3.80;1.33;;;;;;;;;;5123986;28;20046;-76
2022/12/05 11:46:26;;;;;;;5.30;1.30;;;;;;;;;;5123525;28;20394;-76
2022/12/05 11:49:24;;;;;;;3.50;1.33;;;;;;;;;;5134242;27;20055;-75
2022/12/05 11:52:14;;;;;;;2.17;1.00;;;;;;;;;;5130009;27;20054;-76
2022/12/05 11:54:53;;;;;;;2.90;1.10;;;;;;;;;;5130101;27;20047;-76
2022/12/05 11:57:53;;;;;;;3.85;1.10;;;;;;;;;;5130121;27;20485;-76
2022/12/05 12:00:28;;;;;;;3.47;1.20;;;;;;;;;;5130573;27;20046;-76
2022/12/05 12:03:18;;;;;;;2.35;0.90;;;;;;;;;;5129447;27;20051;-76
2022/12/05 12:06:16;;;;;;;2.42;0.90;;;;;;;;;;5129611;27;20043;-81
2022/12/05 12:09:07;;;;;;;1.88;1.08;;;;;;;;;;5129709;27;20054;-78
2022/12/05 12:11:44;;;;;;;2.40;1.10;;;;;;;;;;5129736;27;20050;-76
2022/12/05 12:14:40;;;;;;;2.03;0.93;;;;;;;;;;5129075;27;20047;-76
2022/12/05 12:17:18;;;;;;;2.85;1.10;;;;;;;;;;5128130;27;20043;-76
2022/12/05 12:20:34;;;;;;;3.55;1.20;;;;;;;;;;5128349;27;20043;-76
2022/12/05 12:23:23;;;;;;;2.97;0.93;;;;;;;;;;5108888;28;20052;-76
2022/12/05 12:26:05;;;;;;;0.73;0.68;;;;;;;;;;5109016;28;20596;-76
2022/12/05 12:29:08;;;;;;;2.30;1.00;;;;;;;;;;5108406;28;20509;-76
2022/12/05 12:32:05;;;;;;;1.77;0.82;;;;;;;;;;5107471;28;20056;-77
2022/12/05 12:35:02;;;;;;;3.08;0.98;;;;;;;;;;5108513;28;20051;-76
2022/12/05 12:37:52;;;;;;;2.60;1.20;;;;;;;;;;5108786;28;20500;-75
2022/12/05 12:40:29;;;;;;;1.85;1.05;;;;;;;;;;5108571;28;20527;-76
2022/12/05 12:43:32;;;;;;;2.80;1.00;;;;;;;;;;5108095;28;20048;-77
2022/12/05 12:46:32;;;;;;;2.33;1.00;;;;;;;;;;5108732;28;20047;-76
2022/12/05 12:49:39;;;;;;;2.00;0.90;;;;;;;;;;5109334;28;20056;-79
2022/12/05 12:52:19;;;;;;;2.08;0.82;;;;;;;;;;5108129;28;20063;-77
2022/12/05 12:55:17;;;;;;;5.57;1.30;;;;;;;;;;5108617;28;20048;-76
2022/12/05 12:58:12;;;;;;;3.85;1.13;;;;;;;;;;5108085;28;20052;-77
2022/12/05 13:00:42;;;;;;;1.55;0.80;;;;;;;;;;5107110;28;20043;-77
2022/12/05 13:03:18;;;;;;;1.45;0.98;;;;;;;;;;5108205;28;20070;-77
2022/12/05 13:06:20;;;;;;;2.08;0.90;;;;;;;;;;5106189;28;20063;-76
2022/12/05 13:09:02;;;;;;;1.98;1.10;;;;;;;;;;5090804;28;20421;-76
2022/12/05 13:11:39;;;;;;;2.00;0.95;;;;;;;;;;5107908;28;20054;-76
2022/12/05 13:14:14;;;;;;;1.77;0.90;;;;;;;;;;5108251;28;20051;-77
2022/12/05 13:16:49;;;;;;;2.15;0.90;;;;;;;;;;5107773;28;20074;-76
2022/12/05 13:19:28;;;;;;;2.25;0.90;;;;;;;;;;5108189;28;20046;-76
2022/12/05 13:21:59;;;;;;;1.20;0.80;;;;;;;;;;5107934;28;20044;-77
2022/12/05 13:24:29;;;;;;;2.55;1.10;;;;;;;;;;5107860;28;20046;-75
2022/12/05 13:27:06;;;;;;;3.70;1.00;;;;;;;;;;5107458;28;20047;-76
2022/12/05 13:29:42;;;;;;;1.15;0.95;;;;;;;;;;5107678;28;20501;-76
2022/12/05 13:32:40;;;;;;;2.63;1.10;;;;;;;;;;5107805;28;20047;-79
2022/12/05 13:44:01;;;;;;;1.80;0.82;;;;;;;;;;5107386;28;20385;-77
2022/12/05 13:46:39;;;;;;;3.60;1.30;;;;;;;;;;5107348;28;20402;-76
2022/12/05 13:49:30;;;;;;;2.85;1.38;;;;;;;;;;5107244;28;20055;-76
2022/12/05 13:52:19;;;;;;;2.47;1.27;;;;;;;;;;5105795;28;20043;-77
2022/12/05 13:55:14;;;;;;;1.65;1.10;;;;;;;;;;5106259;28;20048;-76
2022/12/05 13:57:47;;;;;;;2.97;1.30;;;;;;;;;;5107313;28;20509;-77
2022/12/05 14:00:21;;;;;;;2.78;1.35;;;;;;;;;;5107056;28;20052;-76
2022/12/05 14:02:54;;;;;;;1.55;1.00;;;;;;;;;;5107452;28;20405;-75
2022/12/05 14:05:26;;;;;;;3.85;1.10;;;;;;;;;;5107251;28;20117;-75
2022/12/05 14:07:57;;;;;;;2.13;0.93;;;;;;;;;;5104934;28;20054;-77
2022/12/05 14:10:31;;;;;;;1.42;1.00;;;;;;;;;;5107183;28;20070;-76
2022/12/05 14:13:16;;;;;;;3.42;1.08;;;;;;;;;;5107123;28;20040;-75
2022/12/05 14:15:48;;;;;;;3.65;1.20;;;;;;;;;;5106704;28;20051;-76
2022/12/05 14:18:21;;;;;;;1.00;0.90;;;;;;;;;;5106551;28;20048;-77
2022/12/05 14:20:59;;;;;;;4.95;1.02;;;;;;;;;;5106842;28;20051;-76
2022/12/05 14:24:00;;;;;;;3.10;1.00;;;;;;;;;;5106558;28;20054;-77
2022/12/05 14:27:06;;;;;;;2.20;1.10;;;;;;;;;;5105567;28;20043;-77
2022/12/05 14:30:13;;;;;;;2.40;1.00;;;;;;;;;;5106831;28;20048;-76
2022/12/05 14:32:43;;;;;;;1.75;0.80;;;;;;;;;;5107151;28;20070;-75
2022/12/05 14:35:18;;;;;;;5.88;1.50;;;;;;;;;;5107554;28;20066;-76
2022/12/05 14:38:03;;;;;;;3.35;0.95;;;;;;;;;;5107083;28;20114;-76
2022/12/05 14:40:43;;;;;;;3.70;1.02;;;;;;;;;;5106878;28;20048;-76
2022/12/05 14:43:27;;;;;;;1.88;0.98;;;;;;;;;;5105465;28;20047;-77
2022/12/05 14:46:03;;;;;;;1.75;0.77;;;;;;;;;;5106054;28;20055;-76
2022/12/05 14:48:46;;;;;;;2.50;1.00;;;;;;;;;;5106491;28;20052;-75
2022/12/05 14:51:31;;;;;;;2.05;0.90;;;;;;;;;;5106232;28;20075;-76
2022/12/05 14:54:09;;;;;;;2.00;1.00;;;;;;;;;;5106671;28;20079;-75
2022/12/05 14:56:54;;;;;;;2.17;0.80;;;;;;;;;;5106028;28;20044;-76
2022/12/05 14:59:35;;;;;;;1.48;0.90;;;;;;;;;;5106031;28;20043;-75
2022/12/05 15:02:13;;;;;;;1.83;0.90;;;;;;;;;;5106061;28;20528;-78
2022/12/05 15:04:49;;;;;;;4.22;1.08;;;;;;;;;;5106662;28;20047;-75
2022/12/05 15:07:27;;;;;;;2.33;0.90;;;;;;;;;;5106630;28;20048;-75
2022/12/05 15:10:23;;;;;;;1.00;0.70;;;;;;;;;;5106016;28;20043;-75
2022/12/05 15:13:06;;;;;;;2.08;1.00;;;;;;;;;;5106389;28;20043;-74
2022/12/05 15:15:40;;;;;;;1.13;0.68;;;;;;;;;;5106653;28;20048;-75
2022/12/05 15:18:43;;;;;;;1.85;0.77;;;;;;;;;;5106345;28;20043;-76
2022/12/05 15:21:30;;;;;;;1.48;0.85;;;;;;;;;;5096079;28;20051;-75
2022/12/05 15:24:01;;;;;;;1.83;0.55;;;;;;;;;;5106362;28;20051;-75
2022/12/05 15:26:39;;;;;;;1.27;0.90;;;;;;;;;;5110158;28;20401;-78
2022/12/05 15:29:27;;;;;;;1.48;0.80;;;;;;;;;;5110090;28;20518;-75
2022/12/05 15:32:05;;;;;;;1.70;0.70;;;;;;;;;;5110012;28;20039;-76
2022/12/05 15:34:53;;;;;;;1.27;0.65;;;;;;;;;;5110130;28;20036;-76
2022/12/05 15:37:52;;;;;;;1.48;0.70;;;;;;;;;;5110486;28;20052;-78
2022/12/05 15:40:24;;;;;;;1.23;0.70;;;;;;;;;;5109097;28;20062;-75
2022/12/05 15:42:56;;;;;;;1.00;0.70;;;;;;;;;;5109913;28;20055;-76
2022/12/05 15:45:29;;;;;;;0.63;0.47;;;;;;;;;;5109543;28;20059;-76
2022/12/05 15:48:03;;;;;;;1.65;0.40;;;;;;;;;;5109562;28;20056;-76
2022/12/05 15:50:38;;;;;;;1.58;0.68;;;;;;;;;;5109678;28;20052;-75
2022/12/05 15:53:26;;;;;;;1.25;0.52;;;;;;;;;;5109531;28;20040;-76
2022/12/05 15:55:59;;;;;;;;;;;;;;;;;;5110184;28;20044;-75
2022/12/05 15:58:32;;;;;;;;;;;;;;;;;;5109621;28;19930;-76
2022/12/05 16:01:12;;;;;;;0.52;0.40;;;;;;;;;;5109795;28;19927;-81
2022/12/05 16:03:56;;;;;;;1.92;0.90;;;;;;;;;;5109449;28;20398;-76
2022/12/05 16:06:41;;;;;;;1.25;0.75;;;;;;;;;;5108861;28;20055;-75
2022/12/05 16:09:20;;;;;;;1.90;0.80;;;;;;;;;;5108935;28;20529;-76
2022/12/05 16:11:55;;;;;;;1.00;0.60;;;;;;;;;;5109691;28;20505;-79